ADDS METAR Data INFO
IDs: Format: Raw Decoded Include TAF

Data at: 1251 UTC 19 Oct 2017

KGZS 191235Z AUTO 00000KT 1SM BR CLR 05/05 A3029 RMK A01 VIS 1/4V4
KGZS 191215Z AUTO 00000KT 8SM CLR 04/04 A3029 RMK A01
KGZS 191155Z AUTO 00000KT 7SM CLR 04/04 A3029 RMK A01
KGZS 191135Z AUTO 00000KT 3SM BR CLR 04/04 A3028 RMK A01
KGZS 191115Z AUTO 00000KT 3SM BR CLR 05/05 A3028 RMK A01
KGZS 191055Z AUTO 00000KT 8SM CLR 05/05 A3027 RMK A01
KGZS 191035Z AUTO 00000KT 10SM CLR 05/05 A3027 RMK A01
KGZS 191015Z AUTO 00000KT 10SM CLR 05/05 A3026 RMK A01
KGZS 190955Z AUTO 00000KT 10SM CLR 05/05 A3026 RMK A01
KGZS 190935Z AUTO 00000KT 10SM CLR 05/05 A3025 RMK A01
KGZS 190915Z AUTO 00000KT 10SM CLR 05/05 A3024 RMK A01
KGZS 190855Z AUTO 00000KT 10SM CLR 05/05 A3025 RMK A01
KGZS 190835Z AUTO 00000KT 10SM CLR 05/05 A3025 RMK A01
KGZS 190815Z AUTO 00000KT 10SM CLR 05/05 A3025 RMK A01
KGZS 190755Z AUTO 00000KT 10SM CLR 05/05 A3025 RMK A01
KGZS 190735Z AUTO 00000KT 10SM CLR 05/05 A3025 RMK A01
KGZS 190715Z AUTO 00000KT 4SM BR CLR 05/05 A3025 RMK A01
KGZS 190655Z AUTO 00000KT 10SM CLR 06/06 A3025 RMK A01
KGZS 190635Z AUTO 00000KT 9SM CLR 06/06 A3024 RMK A01
KGZS 190615Z AUTO 00000KT 8SM CLR 06/06 A3025 RMK A01
KGZS 190555Z AUTO 00000KT 8SM CLR 06/06 A3024 RMK A01
KGZS 190535Z AUTO 00000KT 7SM CLR 06/06 A3024 RMK A01
KGZS 190515Z AUTO 00000KT 9SM CLR 07/06 A3024 RMK A01
KGZS 190455Z AUTO 00000KT 8SM CLR 07/07 A3025 RMK A01
KGZS 190435Z AUTO 00000KT 10SM CLR 07/07 A3025 RMK A01
KGZS 190415Z AUTO 00000KT 9SM CLR 07/07 A3025 RMK A01
KGZS 190355Z AUTO 00000KT 9SM CLR 07/07 A3026 RMK A01
KGZS 190335Z AUTO 00000KT 10SM CLR 08/07 A3026 RMK A01
KGZS 190315Z AUTO 00000KT 10SM CLR 08/07 A3026 RMK A01
KGZS 190255Z AUTO 00000KT 10SM CLR 08/08 A3026 RMK A01
KGZS 190235Z AUTO 00000KT 10SM CLR 08/08 A3026 RMK A01
KGZS 190215Z AUTO 00000KT 10SM CLR 09/08 A3025 RMK A01
KGZS 190155Z AUTO 00000KT 10SM CLR 09/08 A3025 RMK A01
KGZS 190135Z AUTO 00000KT 10SM CLR 10/09 A3025 RMK A01
KGZS 190115Z AUTO 00000KT 10SM CLR 10/09 A3025 RMK A01
KGZS 190055Z AUTO 00000KT 10SM CLR 10/09 A3025 RMK A01
KGZS 190035Z AUTO 00000KT 10SM CLR 11/09 A3025 RMK A01
KGZS 190015Z AUTO 00000KT 10SM CLR 12/09 A3024 RMK A01
KGZS 182355Z AUTO 00000KT 10SM CLR 12/10 A3024 RMK A01
KGZS 182335Z AUTO 00000KT 10SM CLR 13/11 A3023 RMK A01
KGZS 182315Z AUTO 00000KT 10SM CLR 15/10 A3023 RMK A01
KGZS 182255Z AUTO 00000KT 10SM CLR 18/09 A3022 RMK A01
KGZS 182235Z AUTO 16005KT 10SM CLR 20/07 A3022 RMK A01
KGZS 182215Z AUTO 16004KT 10SM CLR 21/07 A3022 RMK A01
KGZS 182155Z AUTO 15007KT 10SM CLR 22/07 A3023 RMK A01
KGZS 182135Z AUTO 00000KT 10SM CLR 22/07 A3022 RMK A01
KGZS 182115Z AUTO 20004KT 10SM CLR 22/07 A3023 RMK A01
KGZS 182055Z AUTO 22003KT 10SM CLR 22/06 A3023 RMK A01
KGZS 182035Z AUTO 21003KT 10SM CLR 22/06 A3023 RMK A01
KGZS 182015Z AUTO 18005KT 10SM CLR 22/06 A3023 RMK A01
KGZS 181955Z AUTO 18005G11KT 10SM CLR 22/07 A3023 RMK A01
KGZS 181935Z AUTO 00000KT 10SM CLR 22/06 A3025 RMK A01
KGZS 181915Z AUTO 23005KT 10SM CLR 22/06 A3026 RMK A01
KGZS 181855Z AUTO 17005KT 10SM CLR 21/06 A3026 RMK A01
KGZS 181835Z AUTO 18006KT 10SM CLR 21/06 A3027 RMK A01
KGZS 181815Z AUTO VRB04G10KT 10SM CLR 21/06 A3028 RMK A01
KGZS 181755Z AUTO 16006KT 10SM CLR 21/07 A3029 RMK A01
KGZS 181735Z AUTO 18007KT 10SM CLR 20/07 A3030 RMK A01
KGZS 181715Z AUTO 22006G11KT 10SM CLR 20/08 A3031 RMK A01
KGZS 181655Z AUTO 17006G12KT 10SM CLR 19/07 A3032 RMK A01
KGZS 181635Z AUTO 19007KT 10SM CLR 19/07 A3032 RMK A01
KGZS 181615Z AUTO 20008KT 10SM CLR 19/08 A3033 RMK A01
KGZS 181555Z AUTO 17007KT 10SM CLR 18/09 A3033 RMK A01
KGZS 181535Z AUTO VRB03KT 10SM CLR 16/10 A3033 RMK A01
KGZS 181515Z AUTO 15003KT 10SM CLR 15/11 A3034 RMK A01
KGZS 181455Z AUTO 00000KT 10SM CLR 13/11 A3034 RMK A01
KGZS 181435Z AUTO 00000KT 10SM CLR 11/11 A3034 RMK A01
KGZS 181415Z AUTO 00000KT 8SM FEW002 09/09 A3033 RMK A01
KGZS 181355Z AUTO 00000KT 1/4SM FG OVC002 08/08 A3033 RMK A01
KGZS 181335Z AUTO 00000KT M1/4SM FG OVC002 07/07 A3033 RMK A01
KGZS 181315Z AUTO 00000KT M1/4SM FG OVC002 06/06 A3032 RMK A01
KGZS 181255Z AUTO 00000KT M1/4SM FG OVC002 05/05 A3032 RMK A01
KGZS 181235Z AUTO 00000KT 1/4SM FG OVC002 04/04 A3031 RMK A01
KGZS 181215Z AUTO 00000KT 3SM BR OVC002 04/04 A3031 RMK A01
KGZS 181155Z AUTO 00000KT 1/2SM BR OVC002 04/04 A3031 RMK A01
KGZS 181135Z AUTO 00000KT 1/2SM FG OVC002 04/04 A3030 RMK A01
KGZS 181115Z AUTO 00000KT 1/4SM FG OVC002 04/04 A3030 RMK A01
KGZS 181055Z AUTO 00000KT 1/4SM FG OVC002 04/04 A3029 RMK A01
KGZS 181035Z AUTO 00000KT 1/4SM FG OVC002 04/04 A3029 RMK A01
KGZS 181015Z AUTO 00000KT 1/2SM FG OVC002 05/05 A3029 RMK A01
KGZS 180955Z AUTO 00000KT 2 1/2SM BR OVC002 04/04 A3027 RMK A01
KGZS 180935Z AUTO 00000KT 1/4SM FG OVC003 05/05 A3027 RMK A01
KGZS 180915Z AUTO 00000KT 1/4SM FG OVC003 05/05 A3026 RMK A01
KGZS 180855Z AUTO 00000KT 1/2SM BR OVC003 05/05 A3026 RMK A01
KGZS 180835Z AUTO 00000KT M1/4SM FG OVC002 05/05 A3026 RMK A01 VIS M1/4V5
KGZS 180815Z AUTO 00000KT M1/4SM FG OVC002 05/05 A3026 RMK A01
KGZS 180755Z AUTO 00000KT 1/4SM FG OVC002 05/05 A3026 RMK A01
KGZS 180735Z AUTO 00000KT 1/4SM FG OVC002 05/05 A3026 RMK A01
KGZS 180715Z AUTO 00000KT 1/4SM FG OVC002 05/05 A3026 RMK A01
KGZS 180655Z AUTO 00000KT 8SM OVC002 06/06 A3026 RMK A01
KGZS 180635Z AUTO 00000KT 10SM SCT002 06/06 A3027 RMK A01
KGZS 180615Z AUTO 00000KT 10SM CLR 06/06 A3026 RMK A01
KGZS 180555Z AUTO 00000KT 10SM CLR 06/06 A3026 RMK A01
KGZS 180535Z AUTO 00000KT 3SM BR CLR 07/07 A3027 RMK A01
KGZS 180515Z AUTO 00000KT 10SM CLR 07/06 A3027 RMK A01
KGZS 180455Z AUTO 00000KT 10SM CLR 07/07 A3027 RMK A01
KGZS 180435Z AUTO 00000KT 10SM CLR 07/07 A3028 RMK A01
KGZS 180415Z AUTO 00000KT 10SM CLR 07/07 A3028 RMK A01
KGZS 180355Z AUTO 00000KT 10SM CLR 07/07 A3028 RMK A01
KGZS 180335Z AUTO 00000KT 10SM CLR 07/07 A3028 RMK A01
KGZS 180315Z AUTO 00000KT 10SM CLR 08/08 A3028 RMK A01
KGZS 180255Z AUTO 00000KT 10SM CLR 08/08 A3027 RMK A01
KGZS 180235Z AUTO 00000KT 10SM CLR 09/08 A3027 RMK A01
KGZS 180215Z AUTO 00000KT 10SM CLR 09/08 A3027 RMK A01
KGZS 180155Z AUTO 00000KT 10SM CLR 09/09 A3026 RMK A01
KGZS 180135Z AUTO 00000KT 10SM CLR 10/09 A3026 RMK A01
KGZS 180115Z AUTO 00000KT 10SM CLR 10/09 A3026 RMK A01
KGZS 180055Z AUTO 00000KT 10SM CLR 11/10 A3026 RMK A01